Decoded Metar for RKJK (KUNSAN in KOREA) (IATA:KUB) | Meteo·Mobile Aviation Weather
aviador You're here:

RKJK Decoded Metar

KUNSAN in KOREA
Report Time2018-11-19 08:56:00
UTC Time2018-11-19 09:31:14
Flight Rules vfr VFR
Wind210° at 03 kt
W.Decomp.*RWY 18: 2.4 kt HW 1.8 kt RCW
W.Rank210° ranks 19
Current wind is below 210° avg. (9.0)
Visibility9999 m
Phenomena:N/A
Clouds:Broken 075 Hf
Expected CloudBase > 2,800 ft AGL from Temp-Dew spread
Ceiling7,500 ft
Temp11°C (ISA -4)
Dew Point04°C (62% RH)
AAT8.6°C
QNH1022 hPa
Density Alt-633 ft
Elevation30 ft
Report Wrong Elevation
Raw Report
RKJK 190856Z AUTO 21003KT 10SM BKN075 11/04 A3019 RMK AO2 SLP228
T01080038 51005 $=

Extra information for RKJK:More info

Metar Taf Metar & Taf Last 4 Metars F.Rules Stats Wind Profile Meteogram Temp Stats Airport Information Weather charts Add Link Nearby VenuesMetar ALERT Operation Metar Decoded Social comments